Time;durP1;ratioP1;P1;durP2;ratioP2;P2;SDS_P1;SDS_P2;PMS_P1;PMS_P2;Temp;Humidity;BMP_temperature;BMP_pressure;BME280_temperature;BME280_humidity;BME280_pressure;Samples;Min_cycle;Max_cycle;Signal;HPM_P1;HPM_P2
2021/03/22 00:02:15;;;;;;;3.88;3.58;;;;;;;9.94;53.21;101549.78;6267040;22;20052;-75
2021/03/22 00:04:41;;;;;;;3.08;2.88;;;;;;;9.90;53.77;101543.13;6304016;22;20076;-75
2021/03/22 00:07:06;;;;;;;3.10;2.90;;;;;;;9.89;54.50;101551.53;6303215;22;20011;-74
2021/03/22 00:09:32;;;;;;;3.00;2.70;;;;;;;9.80;54.28;101540.13;6279677;22;20014;-74
2021/03/22 00:11:57;;;;;;;5.07;1.92;;;;;;;9.82;53.83;101539.88;6308797;22;20007;-74
2021/03/22 00:14:23;;;;;;;1.90;1.70;;;;;;;9.82;54.52;101532.50;6328928;22;20068;-73
2021/03/22 00:16:48;;;;;;;1.48;1.10;;;;;;;9.78;54.48;101528.56;6304833;22;20003;-74
2021/03/22 00:19:14;;;;;;;0.80;0.80;;;;;;;9.80;54.25;101526.47;6274787;22;20007;-72
2021/03/22 00:21:40;;;;;;;1.25;1.15;;;;;;;9.76;54.51;101514.34;6279413;22;20010;-74
2021/03/22 00:24:06;;;;;;;3.08;1.45;;;;;;;9.78;54.80;101517.66;6302633;22;20000;-74
2021/03/22 00:26:32;;;;;;;1.30;1.20;;;;;;;9.78;55.01;101517.66;6300402;22;20083;-74
2021/03/22 00:28:57;;;;;;;1.02;0.98;;;;;;;9.78;54.77;101517.66;6295914;22;20030;-73
2021/03/22 00:31:23;;;;;;;0.80;0.70;;;;;;;9.79;54.43;101513.84;6270392;22;20436;-73
2021/03/22 00:33:48;;;;;;;0.95;0.70;;;;;;;9.81;54.86;101522.63;6243848;22;20007;-73
2021/03/22 00:36:14;;;;;;;0.95;0.70;;;;;;;9.78;54.70;101517.66;6305618;22;20501;-74
2021/03/22 00:38:39;;;;;;;0.77;0.77;;;;;;;9.77;54.35;101516.00;6302356;22;20009;-74
2021/03/22 00:41:05;;;;;;;0.65;0.60;;;;;;;9.75;54.14;101513.50;6275520;22;20429;-73
2021/03/22 00:43:30;;;;;;;0.50;0.50;;;;;;;9.76;53.98;101514.34;6303247;22;20007;-74
2021/03/22 00:46:01;;;;;;;0.85;0.63;;;;;;;9.76;54.74;101514.34;6276252;22;20326;-74
2021/03/22 00:48:27;;;;;;;2.20;2.10;;;;;;;9.71;54.51;101519.66;6277640;22;20056;-74
2021/03/22 00:50:53;;;;;;;2.60;2.17;;;;;;;9.68;54.81;101514.66;6251714;22;20498;-74
2021/03/22 00:53:18;;;;;;;2.30;2.20;;;;;;;9.59;55.08;101509.53;6278708;22;20003;-74
2021/03/22 00:55:44;;;;;;;2.72;2.08;;;;;;;9.63;55.23;101520.00;6302544;22;19999;-75
2021/03/22 00:58:11;;;;;;;3.13;1.98;;;;;;;9.59;55.20;101506.81;6300294;22;20030;-75
2021/03/22 01:01:02;;;;;;;2.88;1.88;;;;;;;9.63;55.54;101506.34;6305196;22;20003;-75
2021/03/22 01:03:30;;;;;;;2.38;2.17;;;;;;;9.60;55.17;101505.72;6298894;22;20010;-75
2021/03/22 01:05:57;;;;;;;2.53;2.33;;;;;;;9.61;55.24;101512.03;6274763;22;20015;-75
2021/03/22 01:08:25;;;;;;;1.75;1.65;;;;;;;9.59;56.27;101504.09;6307673;22;19999;-74
2021/03/22 01:10:54;;;;;;;2.60;2.40;;;;;;;9.63;56.35;101514.53;6303779;22;20434;-75
2021/03/22 01:13:29;;;;;;;3.05;2.80;;;;;;;9.59;56.41;101504.09;6310543;22;20063;-77
2021/03/22 01:15:55;;;;;;;6.97;4.03;;;;;;;9.59;57.30;101506.81;6309274;22;20007;-75
2021/03/22 01:18:28;;;;;;;4.63;4.22;;;;;;;9.55;56.45;101502.03;6310099;22;20347;-78
2021/03/22 01:21:05;;;;;;;4.20;3.90;;;;;;;9.52;56.89;101502.50;6306229;22;20019;-76
2021/03/22 01:23:30;;;;;;;3.88;3.35;;;;;;;9.46;58.08;101515.16;6310195;22;20002;-76
2021/03/22 01:25:55;;;;;;;3.75;3.55;;;;;;;9.42;57.93;101503.06;6331457;22;20007;-74
2021/03/22 01:28:21;;;;;;;2.78;2.15;;;;;;;9.41;57.02;101506.84;6306149;22;20007;-75
2021/03/22 01:30:52;;;;;;;3.78;3.33;;;;;;;9.44;58.18;101507.22;6304186;22;20003;-75
2021/03/22 01:33:25;;;;;;;3.72;3.10;;;;;;;9.42;58.52;101494.88;6279805;22;20322;-75
2021/03/22 01:35:51;;;;;;;2.22;2.13;;;;;;;9.42;57.78;101492.16;6277709;22;20013;-74
2021/03/22 01:38:16;;;;;;;1.80;1.70;;;;;;;9.47;57.68;101495.00;6302999;22;20068;-75
2021/03/22 01:41:10;;;;;;;1.80;1.70;;;;;;;9.54;57.89;101501.19;6308903;22;20466;-74
2021/03/22 01:43:56;;;;;;;4.30;2.45;;;;;;;9.53;57.91;101499.53;6282292;22;20007;-75
2021/03/22 01:46:23;;;;;;;3.13;2.92;;;;;;;9.51;57.89;101496.22;6305634;22;20325;-74
2021/03/22 01:48:49;;;;;;;2.67;2.47;;;;;;;9.48;57.56;101491.22;6311883;22;20007;-74
2021/03/22 01:51:15;;;;;;;4.10;3.53;;;;;;;9.49;57.57;101494.78;6257890;22;20413;-73
2021/03/22 01:53:41;;;;;;;5.35;4.53;;;;;;;9.40;58.01;101484.19;6306504;22;20008;-73
2021/03/22 01:56:12;;;;;;;4.88;3.55;;;;;;;9.39;58.54;101487.97;6274819;22;20003;-74
2021/03/22 01:58:37;;;;;;;2.17;2.08;;;;;;;9.38;57.59;101494.50;6306934;22;20006;-75
2021/03/22 02:01:03;;;;;;;3.05;2.75;;;;;;;9.36;58.70;101493.06;6305645;22;20007;-74
2021/03/22 02:03:29;;;;;;;3.83;3.38;;;;;;;9.24;58.31;101474.75;6276666;22;20041;-76
2021/03/22 02:05:54;;;;;;;3.00;2.80;;;;;;;9.25;57.98;101476.41;6249693;22;20070;-74
2021/03/22 02:08:28;;;;;;;2.30;2.20;;;;;;;9.21;58.51;101480.69;6240406;23;20090;-73
2021/03/22 02:10:56;;;;;;;2.33;2.13;;;;;;;9.15;58.04;101476.13;6232644;22;20023;-74
2021/03/22 02:13:28;;;;;;;2.22;1.92;;;;;;;9.18;58.26;101480.31;6238785;23;20015;-74
2021/03/22 02:16:05;;;;;;;7.95;3.70;;;;;;;9.15;58.53;101467.13;6243542;23;20000;-74
2021/03/22 02:18:50;;;;;;;2.63;2.42;;;;;;;9.14;59.21;101474.50;6245914;23;20000;-75
2021/03/22 02:21:36;;;;;;;3.22;2.97;;;;;;;9.11;58.70;101474.09;6248779;23;20028;-75
2021/03/22 02:24:33;;;;;;;3.22;2.70;;;;;;;9.10;58.78;101467.81;6244054;22;20039;-74
2021/03/22 02:27:07;;;;;;;;;;;;;;;9.12;59.86;101465.69;6248119;23;20000;-73
2021/03/22 02:29:45;;;;;;;3.33;3.03;;;;;;;9.06;59.79;101459.25;6242463;23;19908;-74
2021/03/22 02:32:29;;;;;;;3.33;2.88;;;;;;;9.09;59.51;101463.41;6242687;22;20004;-75
2021/03/22 02:35:07;;;;;;;3.72;2.78;;;;;;;9.09;59.68;101466.16;6248811;23;20087;-74
2021/03/22 02:37:43;;;;;;;3.15;2.85;;;;;;;9.08;59.41;101469.94;6246341;23;20015;-74
2021/03/22 02:40:20;;;;;;;3.08;2.88;;;;;;;9.08;60.05;101459.88;6246402;23;20011;-76
2021/03/22 02:42:48;;;;;;;2.00;1.90;;;;;;;9.07;60.40;101460.09;6245384;22;20003;-75
2021/03/22 02:45:41;;;;;;;3.03;2.70;;;;;;;9.14;59.69;101463.56;6243948;23;20027;-75
2021/03/22 02:48:17;;;;;;;4.72;2.63;;;;;;;9.16;59.68;101464.16;6228232;23;20015;-75
2021/03/22 02:50:43;;;;;;;3.13;2.83;;;;;;;9.12;59.87;101454.75;6246550;22;20003;-74
2021/03/22 02:53:14;;;;;;;2.20;2.10;;;;;;;9.17;60.65;101463.09;6245424;22;20000;-75
2021/03/22 02:55:52;;;;;;;2.55;1.85;;;;;;;9.17;60.67;101459.53;6239444;23;20004;-75
2021/03/22 02:58:20;;;;;;;4.38;3.67;;;;;;;9.17;60.87;101457.66;6241576;22;20417;-73
2021/03/22 03:01:12;;;;;;;5.10;4.18;;;;;;;9.18;62.62;101453.81;6245573;23;20008;-75
2021/03/22 03:03:38;;;;;;;5.20;4.28;;;;;;;9.14;62.77;101455.38;6270330;22;20127;-76
2021/03/22 03:06:04;;;;;;;4.00;3.70;;;;;;;9.12;63.12;101459.41;6244493;22;20516;-76
2021/03/22 03:08:35;;;;;;;5.90;3.92;;;;;;;9.13;63.75;101459.16;6244866;23;20063;-76
2021/03/22 03:11:00;;;;;;;6.85;3.70;;;;;;;9.14;63.87;101460.00;6241002;22;20035;-76
2021/03/22 03:13:26;;;;;;;4.05;3.85;;;;;;;9.12;63.93;101452.03;6244230;22;20011;-74
2021/03/22 03:15:52;;;;;;;3.47;3.17;;;;;;;9.14;63.02;101458.09;6243577;22;20008;-73
2021/03/22 03:18:18;;;;;;;3.28;2.40;;;;;;;9.12;64.03;101454.75;6243350;22;20008;-74
2021/03/22 03:20:43;;;;;;;4.20;3.80;;;;;;;9.12;64.27;101457.50;6243632;23;20008;-75
2021/03/22 03:23:09;;;;;;;3.00;2.83;;;;;;;9.11;63.29;101447.63;6246203;22;20377;-75
2021/03/22 03:25:34;;;;;;;3.72;3.40;;;;;;;9.11;63.54;101453.09;6240962;22;20479;-73
2021/03/22 03:28:00;;;;;;;4.45;3.58;;;;;;;9.12;63.54;101453.94;6216666;23;20380;-74
2021/03/22 03:30:32;;;;;;;3.75;3.38;;;;;;;9.09;64.63;101444.31;6240000;23;20368;-73
2021/03/22 03:32:59;;;;;;;3.65;3.42;;;;;;;9.05;63.95;101443.09;6244589;22;20011;-74
2021/03/22 03:35:28;;;;;;;4.55;4.15;;;;;;;9.02;64.50;101449.03;6244409;22;20008;-74
2021/03/22 03:37:55;;;;;;;6.45;3.03;;;;;;;9.01;64.37;101450.09;6243697;22;20038;-73
2021/03/22 03:40:31;;;;;;;3.70;3.50;;;;;;;9.00;63.78;101445.72;6240585;22;20061;-74
2021/03/22 03:42:58;;;;;;;4.82;4.43;;;;;;;8.96;64.91;101439.03;6235940;23;20000;-73
2021/03/22 03:45:26;;;;;;;3.75;3.45;;;;;;;8.89;64.61;101439.97;6244503;22;20438;-74
2021/03/22 03:47:51;;;;;;;4.57;3.78;;;;;;;8.91;64.82;101443.28;6244661;22;20315;-74
2021/03/22 03:50:22;;;;;;;5.97;4.07;;;;;;;8.86;65.04;101440.44;6217910;23;20000;-74
2021/03/22 03:52:47;;;;;;;3.83;3.63;;;;;;;8.85;65.83;101448.84;6243562;23;20003;-75
2021/03/22 03:55:14;;;;;;;4.32;3.92;;;;;;;8.82;64.91;101446.56;6239793;22;20095;-74
2021/03/22 03:57:40;;;;;;;3.70;3.50;;;;;;;8.77;65.95;101444.50;6244750;22;20936;-73
2021/03/22 04:00:16;;;;;;;5.90;3.42;;;;;;;8.75;66.10;101449.38;6236194;23;20004;-73
2021/03/22 04:02:41;;;;;;;3.70;3.33;;;;;;;8.72;65.88;101449.84;6243522;22;20074;-74
2021/03/22 04:05:08;;;;;;;4.13;2.88;;;;;;;8.69;66.19;101450.31;6242686;22;20016;-74
2021/03/22 04:07:34;;;;;;;4.28;3.30;;;;;;;8.68;66.49;101449.44;6242611;22;20000;-75
2021/03/22 04:09:59;;;;;;;3.17;2.97;;;;;;;8.66;66.16;101443.41;6213995;23;20423;-74
2021/03/22 04:12:25;;;;;;;3.75;3.45;;;;;;;8.63;66.72;101448.47;6243447;23;20027;-73
2021/03/22 04:14:50;;;;;;;4.20;2.95;;;;;;;8.58;66.62;101448.34;6240933;22;20008;-74
2021/03/22 04:17:16;;;;;;;4.63;3.42;;;;;;;8.51;67.02;101449.25;6236837;22;20304;-75
2021/03/22 04:19:42;;;;;;;6.15;3.40;;;;;;;8.46;66.60;101451.81;6243884;22;20308;-75
2021/03/22 04:22:08;;;;;;;5.72;3.58;;;;;;;8.41;66.83;101448.91;6243538;23;20000;-74
2021/03/22 04:24:33;;;;;;;4.72;3.72;;;;;;;8.32;67.11;101452.97;6242967;22;20091;-73
2021/03/22 04:26:59;;;;;;;7.25;3.83;;;;;;;8.25;67.18;101450.34;6245464;23;20419;-75
2021/03/22 04:29:24;;;;;;;10.48;2.55;;;;;;;8.20;67.13;101452.88;6242321;23;20366;-74
2021/03/22 04:31:50;;;;;;;8.25;3.03;;;;;;;8.15;66.58;101460.91;6242559;23;20042;-74
2021/03/22 04:34:15;;;;;;;4.75;2.80;;;;;;;8.10;65.82;101458.84;6216477;23;20075;-74
2021/03/22 04:36:40;;;;;;;8.70;2.58;;;;;;;8.05;66.58;101458.69;6235265;22;20703;-73
2021/03/22 04:39:08;;;;;;;7.50;2.88;;;;;;;7.98;66.21;101450.56;6244590;23;20012;-75
2021/03/22 04:41:35;;;;;;;2.67;2.03;;;;;;;7.94;65.71;101452.06;6240388;22;20414;-74
2021/03/22 04:44:01;;;;;;;4.72;2.70;;;;;;;7.91;66.36;101462.59;6240840;22;20327;-74
2021/03/22 04:46:26;;;;;;;10.45;3.40;;;;;;;7.89;66.46;101462.00;6243571;23;20035;-73
2021/03/22 04:48:52;;;;;;;6.07;2.80;;;;;;;7.82;66.33;101457.41;6216894;23;20386;-74
2021/03/22 04:51:17;;;;;;;5.60;2.65;;;;;;;7.80;66.37;101464.97;6219281;23;20015;-74
2021/03/22 04:53:44;;;;;;;6.72;2.75;;;;;;;7.68;66.20;101459.44;6208592;23;20091;-76
2021/03/22 04:56:12;;;;;;;5.07;2.75;;;;;;;7.64;66.44;101454.66;6243312;22;20099;-76
2021/03/22 04:58:39;;;;;;;5.47;2.92;;;;;;;7.55;66.83;101458.69;6240007;23;20008;-75
2021/03/22 05:01:05;;;;;;;8.68;3.28;;;;;;;7.53;66.54;101458.06;6240756;23;20004;-75
2021/03/22 05:03:31;;;;;;;3.13;2.25;;;;;;;7.45;66.36;101451.84;6268288;22;20000;-75
2021/03/22 05:05:57;;;;;;;6.53;2.58;;;;;;;7.44;66.78;101452.88;6284613;22;20019;-73
2021/03/22 05:08:24;;;;;;;4.72;1.90;;;;;;;7.41;66.46;101455.22;6279068;22;20011;-74
2021/03/22 05:10:53;;;;;;;4.60;1.73;;;;;;;7.37;66.07;101451.28;6301492;22;20014;-73
2021/03/22 05:13:20;;;;;;;3.70;2.20;;;;;;;7.33;66.57;101454.44;6274340;22;20424;-73
2021/03/22 05:15:45;;;;;;;1.55;1.40;;;;;;;7.29;66.76;101441.50;6303722;22;20074;-74
2021/03/22 05:18:13;;;;;;;11.73;2.80;;;;;;;7.26;66.50;101447.38;6276664;22;20047;-74
2021/03/22 05:20:48;;;;;;;5.00;1.98;;;;;;;7.24;66.29;101450.31;6303550;22;20003;-73
2021/03/22 05:23:21;;;;;;;6.30;2.03;;;;;;;7.19;65.96;101457.47;6296181;22;20023;-73
2021/03/22 05:25:46;;;;;;;11.45;2.63;;;;;;;7.11;66.65;101451.22;6276772;22;20009;-74
2021/03/22 05:28:12;;;;;;;4.35;2.30;;;;;;;7.07;66.11;101441.00;6305101;22;20355;-73
2021/03/22 05:30:39;;;;;;;3.03;1.52;;;;;;;7.11;66.29;101462.09;6275593;22;20034;-74
2021/03/22 05:33:10;;;;;;;3.70;1.35;;;;;;;7.10;66.77;101449.53;6301218;22;20422;-73
2021/03/22 05:35:37;;;;;;;3.20;1.67;;;;;;;7.08;66.37;101451.66;6295763;22;20102;-74
2021/03/22 05:38:06;;;;;;;3.60;1.50;;;;;;;7.06;66.21;101442.88;6303023;22;20014;-74
2021/03/22 05:40:34;;;;;;;2.75;0.90;;;;;;;7.04;65.99;101442.25;6304144;22;20425;-74
2021/03/22 05:43:05;;;;;;;0.70;0.70;;;;;;;7.00;65.73;101432.88;6297707;22;20037;-74
2021/03/22 05:45:43;;;;;;;0.52;0.40;;;;;;;6.93;65.65;101441.03;6304974;22;20003;-72
2021/03/22 05:48:11;;;;;;;1.65;0.50;;;;;;;6.82;65.71;101439.84;6273872;22;20015;-73
2021/03/22 05:50:58;;;;;;;0.82;0.50;;;;;;;6.69;65.17;101431.75;6304557;22;20013;-73
2021/03/22 05:53:44;;;;;;;1.33;0.50;;;;;;;6.58;65.29;101440.56;6302184;22;20373;-73
2021/03/22 05:56:20;;;;;;;0.63;0.63;;;;;;;6.44;65.50;101446.06;6276281;22;20004;-74
2021/03/22 05:58:56;;;;;;;0.30;0.30;;;;;;;6.29;65.56;101427.31;6302526;22;20004;-73
2021/03/22 06:01:45;;;;;;;1.55;0.20;;;;;;;6.26;65.91;101429.59;6301410;22;20098;-73
2021/03/22 06:04:38;;;;;;;0.43;0.20;;;;;;;6.19;65.79;101431.50;6306165;22;20048;-74
2021/03/22 06:07:05;;;;;;;0.52;0.40;;;;;;;6.10;66.11;101428.16;6305706;22;20008;-73
2021/03/22 06:09:33;;;;;;;1.77;0.50;;;;;;;6.01;66.34;101427.53;6302286;22;20003;-73
2021/03/22 06:12:02;;;;;;;0.95;0.38;;;;;;;5.97;66.40;101434.44;6307103;22;20433;-73
2021/03/22 06:14:40;;;;;;;0.40;0.40;;;;;;;5.91;66.46;101432.53;6307546;22;20048;-73
2021/03/22 06:17:14;;;;;;;0.43;0.35;;;;;;;5.85;66.48;101436.94;6301706;22;20061;-72
2021/03/22 06:19:48;;;;;;;0.50;0.32;;;;;;;5.84;66.51;101448.84;6297846;22;20080;-73
2021/03/22 06:22:21;;;;;;;0.32;0.28;;;;;;;5.82;66.63;101447.38;6303723;22;20375;-74
2021/03/22 06:24:47;;;;;;;0.32;0.32;;;;;;;5.79;66.74;101450.53;6307481;22;20315;-75
2021/03/22 06:27:14;;;;;;;3.00;0.80;;;;;;;5.70;66.96;101437.16;6280925;22;20010;-73
2021/03/22 06:29:40;;;;;;;0.60;0.50;;;;;;;5.71;67.32;101443.41;6302250;22;20074;-73
2021/03/22 06:32:21;;;;;;;0.50;0.47;;;;;;;5.77;67.07;101451.56;6277542;22;20041;-72
2021/03/22 06:34:54;;;;;;;0.40;0.40;;;;;;;5.78;67.04;101455.09;6306336;22;20057;-73
2021/03/22 06:37:26;;;;;;;0.30;0.22;;;;;;;5.79;67.34;101448.63;6306467;22;20314;-73
2021/03/22 06:40:27;;;;;;;2.10;0.15;;;;;;;5.86;66.90;101456.78;6273125;22;20053;-73
2021/03/22 06:43:13;;;;;;;0.20;0.20;;;;;;;5.90;66.88;101456.16;6332109;22;20307;-74
2021/03/22 06:45:43;;;;;;;0.40;0.30;;;;;;;5.94;66.84;101461.97;6280490;22;20007;-74
2021/03/22 06:48:30;;;;;;;0.40;0.40;;;;;;;6.01;66.81;101462.84;6305186;22;20078;-73
2021/03/22 06:51:02;;;;;;;1.08;0.30;;;;;;;6.08;66.89;101468.28;6283389;22;20003;-73
2021/03/22 06:53:56;;;;;;;0.25;0.20;;;;;;;6.18;66.70;101457.00;6308148;22;20083;-75
2021/03/22 06:56:29;;;;;;;0.40;0.30;;;;;;;6.21;66.86;101453.84;6310183;22;20003;-73
2021/03/22 06:59:13;;;;;;;0.80;0.60;;;;;;;6.30;66.75;101460.72;6306941;22;20425;-74
2021/03/22 07:01:42;;;;;;;0.75;0.75;;;;;;;6.36;66.77;101459.88;6306241;22;20007;-74
2021/03/22 07:04:14;;;;;;;0.68;0.60;;;;;;;6.42;67.14;101459.00;6283423;22;20091;-75
2021/03/22 07:06:40;;;;;;;0.90;0.75;;;;;;;6.53;66.71;101471.13;6309107;22;20380;-74
2021/03/22 07:09:05;;;;;;;1.48;1.35;;;;;;;6.61;66.91;101464.59;6282073;22;20031;-74
2021/03/22 07:11:31;;;;;;;6.68;1.33;;;;;;;6.60;67.14;101454.78;6282991;22;20018;-74
2021/03/22 07:14:03;;;;;;;2.88;1.02;;;;;;;6.65;67.13;101457.69;6281160;22;20011;-76
2021/03/22 07:16:31;;;;;;;0.80;0.75;;;;;;;6.60;67.14;101460.22;6273392;22;20338;-74
2021/03/22 07:19:16;;;;;;;2.60;0.90;;;;;;;6.69;66.64;101466.25;6256151;22;20485;-74
2021/03/22 07:22:00;;;;;;;2.47;0.80;;;;;;;6.69;66.31;101474.41;6305235;22;20003;-73
2021/03/22 07:24:43;;;;;;;1.20;1.00;;;;;;;6.74;66.35;101470.00;6305274;22;20003;-73
2021/03/22 07:27:17;;;;;;;3.65;1.58;;;;;;;6.71;66.85;101475.88;6306704;22;19999;-74
2021/03/22 07:30:18;;;;;;;2.13;1.60;;;;;;;6.68;66.60;101476.28;6274709;22;20037;-74
2021/03/22 07:32:49;;;;;;;3.40;2.15;;;;;;;6.61;67.04;101472.75;6299174;22;20003;-73
2021/03/22 07:35:34;;;;;;;1.65;1.33;;;;;;;6.60;67.54;101481.94;6304677;22;20476;-74
2021/03/22 07:38:16;;;;;;;3.50;1.20;;;;;;;6.60;67.19;101479.22;6306045;22;20006;-74
2021/03/22 07:40:59;;;;;;;5.60;1.35;;;;;;;6.59;67.15;101474.88;6305908;22;20014;-72
2021/03/22 07:43:43;;;;;;;10.45;1.63;;;;;;;6.58;67.66;101474.00;6304092;22;19995;-74
2021/03/22 07:46:47;;;;;;;1.70;1.40;;;;;;;6.62;67.88;101490.75;6280232;22;20345;-73
2021/03/22 07:49:34;;;;;;;4.15;1.45;;;;;;;6.73;67.88;101484.66;6166101;22;20034;-72
2021/03/22 07:52:11;;;;;;;3.13;1.10;;;;;;;6.97;67.72;101487.69;6302827;22;20003;-72
2021/03/22 07:54:56;;;;;;;4.25;1.38;;;;;;;7.31;67.42;101482.91;6279083;22;20007;-73
2021/03/22 07:57:38;;;;;;;1.98;1.58;;;;;;;7.57;66.79;101491.97;6302824;22;20026;-73
2021/03/22 08:00:32;;;;;;;4.72;1.27;;;;;;;7.65;66.05;101491.69;6302342;22;20025;-76
2021/03/22 08:03:04;;;;;;;1.27;1.17;;;;;;;7.73;66.42;101483.25;6274455;22;19999;-76
2021/03/22 08:05:35;;;;;;;2.10;0.90;;;;;;;8.20;66.51;101491.03;6278384;22;20011;-77
2021/03/22 08:08:24;;;;;;;2.65;1.67;;;;;;;8.74;65.64;101492.16;6273759;22;20329;-76
2021/03/22 08:11:08;;;;;;;6.05;2.22;;;;;;;9.20;63.27;101500.84;6276764;22;20002;-76
2021/03/22 08:13:38;;;;;;;3.08;1.33;;;;;;;9.39;63.00;101503.53;6312116;22;20041;-76
2021/03/22 08:16:55;;;;;;;3.45;1.02;;;;;;;9.68;62.88;101501.00;6316961;22;20014;-77
2021/03/22 08:19:30;;;;;;;;;;;;;;;10.05;60.69;101500.84;6340529;22;20003;-77
2021/03/22 08:22:02;;;;;;;1.20;0.65;;;;;;;10.00;60.82;101503.44;6309832;22;20026;-74
2021/03/22 08:24:49;;;;;;;0.70;0.47;;;;;;;10.12;61.60;101501.56;6306306;22;20346;-73
2021/03/22 08:27:18;;;;;;;4.05;1.85;;;;;;;10.02;58.85;101506.78;6305100;22;20003;-74
2021/03/22 08:30:27;;;;;;;6.82;1.95;;;;;;;9.86;58.77;101508.31;6280060;22;20018;-74
2021/03/22 08:33:12;;;;;;;3.05;1.13;;;;;;;9.72;59.81;101504.94;6300023;22;20037;-75
2021/03/22 08:36:04;;;;;;;3.25;1.13;;;;;;;9.70;59.34;101494.25;6271557;22;20412;-74
2021/03/22 08:38:42;;;;;;;0.80;0.40;;;;;;;9.80;59.86;101496.41;6230527;22;20030;-75
2021/03/22 08:41:29;;;;;;;0.43;0.38;;;;;;;10.15;59.98;101503.81;6280295;22;20015;-76
2021/03/22 08:44:09;;;;;;;0.55;0.20;;;;;;;10.50;59.62;101503.03;6283270;22;20338;-75
2021/03/22 08:47:28;;;;;;;0.50;0.30;;;;;;;10.94;59.49;101508.88;6311099;22;20006;-77
2021/03/22 08:50:04;;;;;;;0.75;0.47;;;;;;;11.12;58.25;101507.03;6275199;22;20003;-76
2021/03/22 08:52:48;;;;;;;0.30;0.30;;;;;;;11.18;57.98;101508.81;6283413;22;20006;-76
2021/03/22 08:55:19;;;;;;;0.70;0.43;;;;;;;11.32;58.02;101515.66;6285394;22;20029;-74
2021/03/22 08:58:02;;;;;;;0.30;0.30;;;;;;;11.39;57.77;101501.81;6330806;22;20018;-75
2021/03/22 09:00:34;;;;;;;0.98;0.88;;;;;;;11.46;55.54;101507.13;6311798;22;20523;-75
2021/03/22 09:03:34;;;;;;;2.70;1.02;;;;;;;11.34;55.95;101502.53;6313393;22;19998;-77
2021/03/22 09:06:03;;;;;;;2.50;0.75;;;;;;;11.48;55.97;101507.75;6308330;22;20015;-79
2021/03/22 09:08:53;;;;;;;1.00;0.47;;;;;;;11.52;56.22;101489.72;6284684;22;20382;-77
2021/03/22 09:11:56;;;;;;;0.82;0.30;;;;;;;11.95;56.33;101501.19;6318460;22;19999;-78
2021/03/22 09:14:43;;;;;;;5.18;0.35;;;;;;;12.25;55.88;101500.84;6302122;22;20027;-77
2021/03/22 09:18:03;;;;;;;1.77;0.68;;;;;;;12.40;54.11;101476.38;6281312;22;20007;-77
2021/03/22 09:21:06;;;;;;;4.13;0.75;;;;;;;12.55;53.34;101499.63;6168879;22;20001;-76
2021/03/22 09:23:45;;;;;;;;;;;;;;;;;;;;;
2021/03/22 09:26:16;;;;;;;0.80;0.47;;;;;;;13.14;54.07;101490.75;6318320;22;20038;-78
2021/03/22 09:29:10;;;;;;;2.03;0.68;;;;;;;13.61;53.88;101492.09;6322233;22;20082;-78
2021/03/22 09:35:01;;;;;;;3.38;0.95;;;;;;;14.32;50.51;101493.75;6312863;22;20003;-75
2021/03/22 09:38:04;;;;;;;3.50;1.00;;;;;;;14.36;50.33;101505.06;6284461;22;19995;-76
2021/03/22 09:40:53;;;;;;;3.00;0.60;;;;;;;14.08;48.98;101499.63;6311465;22;19995;-76
2021/03/22 09:43:18;;;;;;;0.45;0.45;;;;;;;14.05;50.22;101489.16;6309942;22;19999;-76
2021/03/22 09:49:05;;;;;;;0.95;0.60;;;;;;;14.01;47.64;101481.72;6300120;22;20007;-79
2021/03/22 09:51:43;;;;;;;2.03;1.15;;;;;;;14.06;47.92;101501.84;6318394;22;20042;-77
2021/03/22 09:54:38;;;;;;;2.05;0.40;;;;;;;14.07;47.73;101494.41;6319212;22;20037;-75
2021/03/22 09:57:28;;;;;;;0.70;0.50;;;;;;;14.07;48.04;101497.16;6317857;22;20048;-77
2021/03/22 10:00:19;;;;;;;0.73;0.68;;;;;;;14.11;48.03;101493.59;6286225;22;20235;-76
2021/03/22 10:03:32;;;;;;;1.33;1.05;;;;;;;13.91;46.27;101476.94;6289800;22;20075;-76
2021/03/22 10:07:03;;;;;;;;;;;;;;;;;;;;;
2021/03/22 10:09:41;;;;;;;2.78;0.75;;;;;;;13.24;47.38;101487.28;6222312;22;20034;-75
2021/03/22 10:12:12;;;;;;;3.63;0.85;;;;;;;13.24;46.36;101495.53;6292633;22;20003;-75
2021/03/22 10:15:09;;;;;;;1.95;0.65;;;;;;;13.22;46.71;101503.19;6311774;22;20075;-77
2021/03/22 10:18:00;;;;;;;0.77;0.70;;;;;;;13.10;46.34;101495.94;6283124;22;19999;-76
2021/03/22 10:20:54;;;;;;;1.55;0.82;;;;;;;13.02;45.33;101499.13;6291790;22;20014;-78
2021/03/22 10:23:38;;;;;;;0.75;0.50;;;;;;;12.92;46.24;101509.97;6307298;22;20003;-78
2021/03/22 10:26:13;;;;;;;3.78;0.80;;;;;;;12.96;46.29;101504.81;6283523;22;20448;-76
2021/03/22 10:28:41;;;;;;;;;;;;;;;13.36;44.83;101510.00;6308542;22;20056;-76
2021/03/22 10:31:36;;;;;;;4.70;0.50;;;;;;;13.41;46.10;101496.28;6315748;22;19907;-77
2021/03/22 10:38:47;;;;;;;;;;;;;;;;;;;;;
2021/03/22 10:42:09;;;;;;;;;;;;;;;;;;;;;
2021/03/22 10:44:44;;;;;;;1.30;0.85;;;;;;;16.04;40.98;101517.75;6321121;22;20053;-78
2021/03/22 10:47:15;;;;;;;5.32;0.55;;;;;;;15.84;39.56;101503.97;6280958;22;20095;-78
2021/03/22 10:49:46;;;;;;;1.55;0.88;;;;;;;15.81;39.95;101502.63;6285600;22;20003;-76
2021/03/22 10:52:23;;;;;;;1.55;0.73;;;;;;;15.94;40.30;101503.16;6282183;22;19999;-78
2021/03/22 10:54:57;;;;;;;0.82;0.68;;;;;;;16.08;39.83;101501.50;6312931;22;20002;-76
2021/03/22 10:57:42;;;;;;;2.53;0.68;;;;;;;16.32;38.29;101525.75;6281058;22;20000;-78
2021/03/22 11:00:34;;;;;;;2.15;0.40;;;;;;;16.54;39.97;101509.72;6283690;22;20007;-76
2021/03/22 11:03:15;;;;;;;;;;;;;;;;;;;;;
2021/03/22 11:06:06;;;;;;;0.95;0.28;;;;;;;17.23;40.44;101498.13;6306919;22;20050;-75
2021/03/22 11:08:38;;;;;;;0.60;0.20;;;;;;;18.15;39.19;101507.75;6309605;22;20030;-75
2021/03/22 11:11:23;;;;;;;1.42;0.55;;;;;;;18.19;35.49;101514.31;6284534;22;20056;-75
2021/03/22 11:13:52;;;;;;;0.57;0.47;;;;;;;17.90;37.08;101512.38;6283187;22;20007;-76
2021/03/22 11:16:32;;;;;;;0.80;0.10;;;;;;;18.17;37.92;101526.81;6285149;22;20064;-78
2021/03/22 11:19:26;;;;;;;0.25;0.20;;;;;;;18.56;37.60;101512.88;6290963;22;20003;-77
2021/03/22 11:23:02;;;;;;;1.25;0.60;;;;;;;18.88;35.68;101503.09;6232265;22;20000;-76
2021/03/22 11:25:31;;;;;;;1.23;0.65;;;;;;;19.39;36.58;101520.16;6191209;23;20040;-77
2021/03/22 11:28:15;;;;;;;1.15;0.52;;;;;;;21.11;36.59;101526.91;6166282;23;20047;-78
2021/03/22 11:30:57;;;;;;;0.75;0.50;;;;;;;22.35;34.47;101524.03;6249249;22;20001;-77
2021/03/22 11:33:51;;;;;;;1.50;0.70;;;;;;;24.84;29.58;101519.56;6315462;22;20140;-79
2021/03/22 11:40:02;;;;;;;2.13;0.50;;;;;;;27.22;24.72;101528.94;6300831;22;20003;-79
2021/03/22 11:42:35;;;;;;;1.30;0.40;;;;;;;26.36;25.71;101528.91;6296139;22;19999;-77
2021/03/22 11:45:50;;;;;;;;;;;;;;;;;;;;;
2021/03/22 11:48:22;;;;;;;0.75;0.47;;;;;;;26.97;26.52;101523.34;6243237;22;20030;-77
2021/03/22 11:51:14;;;;;;;4.82;0.82;;;;;;;26.89;23.91;101513.06;6310694;22;19995;-79
2021/03/22 11:54:15;;;;;;;0.50;0.35;;;;;;;26.60;25.41;101520.50;6313396;22;20019;-79
2021/03/22 11:57:15;;;;;;;0.45;0.40;;;;;;;26.10;25.78;101514.00;6279973;22;19999;-77
2021/03/22 11:59:56;;;;;;;0.45;0.30;;;;;;;26.95;25.24;101502.41;6310211;22;20420;-79
2021/03/22 12:02:28;;;;;;;1.65;0.30;;;;;;;27.25;24.21;101517.00;6282895;22;20010;-80
2021/03/22 12:05:04;;;;;;;1.00;0.60;;;;;;;26.71;22.93;101514.44;6283819;22;20062;-80
2021/03/22 12:07:48;;;;;;;1.30;0.35;;;;;;;27.16;24.46;101513.47;6282922;22;20433;-79
2021/03/22 12:10:23;;;;;;;0.93;0.47;;;;;;;28.37;24.75;101501.34;6284918;22;20011;-80
2021/03/22 12:12:49;;;;;;;0.63;0.30;;;;;;;30.11;24.06;101509.66;6281162;22;20008;-80
2021/03/22 12:15:19;;;;;;;5.07;1.05;;;;;;;31.12;19.39;101517.00;6283387;22;20026;-79
2021/03/22 12:17:54;;;;;;;0.70;0.57;;;;;;;31.35;19.73;101501.97;6282530;22;20010;-80
2021/03/22 12:20:24;;;;;;;0.30;0.25;;;;;;;32.36;21.07;101503.97;6312759;22;19999;-80
2021/03/22 12:22:59;;;;;;;0.50;0.30;;;;;;;33.58;21.17;101506.78;6286792;22;20004;-80
2021/03/22 12:25:45;;;;;;;0.30;0.20;;;;;;;35.05;21.11;101501.69;6286426;22;19999;-81
2021/03/22 12:28:21;;;;;;;0.68;0.47;;;;;;;35.77;18.71;101513.59;6312674;22;20007;-81
2021/03/22 12:30:47;;;;;;;1.42;0.90;;;;;;;35.87;16.18;101506.25;6243149;22;20003;-79
2021/03/22 12:33:25;;;;;;;0.50;0.32;;;;;;;36.61;17.77;101509.00;6294504;22;20014;-81
2021/03/22 12:39:54;;;;;;;2.95;0.25;;;;;;;37.97;16.52;101500.09;6083916;23;20010;-76